createdAt,value
2018-03-26T00:02:21.727Z,14.07
2018-03-26T00:04:49.180Z,14.95
2018-03-26T00:07:16.639Z,14.40
2018-03-26T00:09:44.096Z,14.53
2018-03-26T00:12:11.558Z,13.00
2018-03-26T00:14:39.013Z,13.33
2018-03-26T00:17:06.472Z,12.47
2018-03-26T00:19:33.927Z,11.73
2018-03-26T00:22:01.404Z,13.17
2018-03-26T00:24:28.844Z,13.40
2018-03-26T00:26:56.303Z,13.77
2018-03-26T00:29:23.756Z,15.23
2018-03-26T00:31:51.216Z,13.90
2018-03-26T00:34:18.696Z,14.00
2018-03-26T00:36:46.960Z,13.40
2018-03-26T00:39:14.387Z,13.50
2018-03-26T00:41:41.844Z,12.00
2018-03-26T00:44:09.301Z,11.57
2018-03-26T00:46:37.520Z,11.00
2018-03-26T00:49:04.952Z,12.10
2018-03-26T00:51:32.445Z,11.63
2018-03-26T00:53:59.884Z,11.67
2018-03-26T00:56:27.343Z,11.37
2018-03-26T00:58:54.796Z,12.03
2018-03-26T01:01:22.252Z,12.23
2018-03-26T01:03:49.699Z,11.93
2018-03-26T01:06:17.169Z,12.30
2018-03-26T01:08:44.608Z,12.63
2018-03-26T01:11:12.069Z,11.97
2018-03-26T01:13:39.556Z,12.03
2018-03-26T01:16:06.996Z,12.43
2018-03-26T01:18:34.470Z,13.23
2018-03-26T01:21:01.925Z,12.67
2018-03-26T01:23:29.364Z,11.90
2018-03-26T01:25:56.812Z,13.50
2018-03-26T01:28:24.283Z,12.97
2018-03-26T01:30:51.731Z,12.17
2018-03-26T01:33:19.195Z,12.37
2018-03-26T01:35:46.640Z,12.50
2018-03-26T01:38:14.091Z,13.13
2018-03-26T01:40:41.544Z,12.73
2018-03-26T01:43:08.995Z,13.27
2018-03-26T01:45:36.490Z,14.10
2018-03-26T01:48:03.928Z,14.30
2018-03-26T01:50:31.397Z,13.13
2018-03-26T01:52:58.855Z,12.97
2018-03-26T01:55:26.314Z,12.57
2018-03-26T01:57:54.599Z,11.20
2018-03-26T02:00:22.045Z,13.33
2018-03-26T02:02:49.500Z,12.70
2018-03-26T02:05:16.948Z,13.33
2018-03-26T02:07:44.428Z,14.27
2018-03-26T02:10:11.872Z,13.83
2018-03-26T02:12:39.355Z,12.67
2018-03-26T02:15:07.580Z,11.80
2018-03-26T02:17:35.052Z,12.57
2018-03-26T02:20:02.494Z,11.83
2018-03-26T02:22:29.990Z,12.53
2018-03-26T02:24:57.419Z,12.37
2018-03-26T02:27:24.884Z,12.93
2018-03-26T02:29:52.328Z,13.33
2018-03-26T02:32:19.800Z,12.07
2018-03-26T02:34:47.244Z,13.33
2018-03-26T02:37:14.715Z,12.23
2018-03-26T02:39:42.148Z,12.87
2018-03-26T02:42:09.632Z,12.60
2018-03-26T02:44:37.102Z,13.23
2018-03-26T02:47:04.561Z,12.93
2018-03-26T02:49:32.004Z,12.30
2018-03-26T02:51:59.475Z,13.00
2018-03-26T02:54:26.920Z,12.90
2018-03-26T02:56:54.372Z,12.30
2018-03-26T02:59:21.832Z,13.03
2018-03-26T03:01:49.300Z,13.07
2018-03-26T03:04:16.742Z,14.27
2018-03-26T03:06:44.275Z,12.63
2018-03-26T03:09:11.752Z,13.07
2018-03-26T03:11:39.214Z,12.53
2018-03-26T03:14:06.700Z,12.37
2018-03-26T03:16:34.149Z,13.20
2018-03-26T03:19:01.604Z,12.50
2018-03-26T03:21:29.060Z,11.87
2018-03-26T03:23:56.499Z,12.30
2018-03-26T03:26:23.957Z,11.90
2018-03-26T03:28:51.416Z,11.90
2018-03-26T03:31:18.857Z,10.90
2018-03-26T03:33:46.315Z,11.20
2018-03-26T03:36:13.759Z,12.53
2018-03-26T03:38:41.220Z,11.30
2018-03-26T03:41:08.672Z,11.30
2018-03-26T03:43:36.131Z,10.97
2018-03-26T03:46:03.595Z,10.43
2018-03-26T03:48:31.048Z,10.50
2018-03-26T03:50:58.518Z,12.17
2018-03-26T03:53:25.948Z,11.07
2018-03-26T03:55:53.404Z,12.13
2018-03-26T03:58:20.865Z,11.87
2018-03-26T04:00:48.320Z,12.63
2018-03-26T04:03:15.795Z,12.50
2018-03-26T04:05:43.235Z,12.40
2018-03-26T04:08:10.694Z,11.50
2018-03-26T04:10:38.152Z,12.70
2018-03-26T04:13:05.643Z,12.23
2018-03-26T04:15:33.086Z,12.53
2018-03-26T04:18:00.544Z,12.90
2018-03-26T04:20:28.016Z,12.57
2018-03-26T04:22:55.478Z,12.77
2018-03-26T04:25:22.919Z,12.17
2018-03-26T04:27:50.421Z,13.90
2018-03-26T04:30:17.871Z,11.37
2018-03-26T04:32:45.325Z,13.07
2018-03-26T04:35:12.771Z,12.20
2018-03-26T04:37:40.215Z,11.47
2018-03-26T04:40:07.664Z,12.33
2018-03-26T04:42:35.115Z,11.77
2018-03-26T04:45:02.580Z,11.83
2018-03-26T04:47:30.028Z,12.30
2018-03-26T04:49:57.475Z,11.60
2018-03-26T04:52:24.947Z,12.03
2018-03-26T04:54:52.391Z,10.73
2018-03-26T04:57:20.615Z,12.60
2018-03-26T04:59:48.074Z,13.43
2018-03-26T05:02:15.559Z,12.57
2018-03-26T05:04:42.960Z,11.73
2018-03-26T05:07:10.419Z,12.07
2018-03-26T05:09:37.868Z,12.33
2018-03-26T05:12:05.323Z,12.63
2018-03-26T05:14:32.774Z,12.07
2018-03-26T05:17:00.232Z,11.00
2018-03-26T05:19:27.683Z,13.33
2018-03-26T05:21:55.140Z,12.17
2018-03-26T05:24:22.605Z,11.27
2018-03-26T05:26:50.040Z,12.87
2018-03-26T05:29:17.507Z,13.30
2018-03-26T05:31:45.707Z,12.03
2018-03-26T05:34:13.164Z,12.00
2018-03-26T05:36:40.624Z,11.23
2018-03-26T05:39:08.083Z,12.00
2018-03-26T05:41:35.524Z,12.17
2018-03-26T05:44:02.980Z,11.30
2018-03-26T05:46:30.428Z,12.30
2018-03-26T05:48:57.888Z,11.50
2018-03-26T05:51:26.102Z,12.37
2018-03-26T05:53:53.539Z,12.77
2018-03-26T05:56:21.008Z,12.70
2018-03-26T05:58:48.468Z,11.03
2018-03-26T06:01:15.900Z,12.00
2018-03-26T06:03:43.359Z,13.27
2018-03-26T06:06:10.807Z,12.80
2018-03-26T06:08:38.264Z,12.93
2018-03-26T06:11:05.727Z,12.90
2018-03-26T06:13:33.186Z,14.30
2018-03-26T06:16:00.632Z,14.13
2018-03-26T06:18:28.095Z,14.00
2018-03-26T06:20:55.532Z,14.03
2018-03-26T06:23:22.992Z,12.27
2018-03-26T06:25:50.447Z,12.87
2018-03-26T06:28:17.920Z,12.80
2018-03-26T06:30:45.369Z,12.23
2018-03-26T06:33:12.821Z,12.20
2018-03-26T06:35:40.260Z,11.93
2018-03-26T06:38:10.175Z,12.30
2018-03-26T06:40:37.620Z,13.07
2018-03-26T06:43:05.859Z,12.77
2018-03-26T06:45:33.303Z,12.73
2018-03-26T06:48:00.765Z,13.27
2018-03-26T06:50:28.252Z,12.50
2018-03-26T06:52:55.691Z,22.03
2018-03-26T06:55:23.144Z,14.60
2018-03-26T06:57:50.605Z,14.47
2018-03-26T07:00:18.053Z,18.30
2018-03-26T07:02:45.506Z,17.20
2018-03-26T07:05:12.956Z,16.27
2018-03-26T07:07:40.408Z,14.37
2018-03-26T07:10:07.857Z,14.53
2018-03-26T07:12:35.316Z,14.50
2018-03-26T07:15:02.830Z,14.03
2018-03-26T07:17:30.224Z,15.70
2018-03-26T07:19:57.694Z,19.53
2018-03-26T07:22:25.143Z,20.77
2018-03-26T07:24:52.600Z,21.47
2018-03-26T07:27:20.060Z,23.10
2018-03-26T07:29:47.516Z,18.93
2018-03-26T07:32:14.967Z,17.50
2018-03-26T07:34:42.428Z,16.83
2018-03-26T07:37:09.868Z,16.00
2018-03-26T07:39:37.337Z,16.10
2018-03-26T07:42:04.775Z,17.27
2018-03-26T07:44:33.009Z,16.93
2018-03-26T07:47:00.464Z,17.37
2018-03-26T07:49:27.944Z,17.50
2018-03-26T07:51:55.399Z,19.43
2018-03-26T07:54:22.827Z,20.87
2018-03-26T07:56:50.281Z,23.07
2018-03-26T07:59:17.729Z,23.80
2018-03-26T08:01:45.183Z,25.77
2018-03-26T08:04:12.656Z,27.37
2018-03-26T08:06:40.118Z,27.43
2018-03-26T08:09:07.572Z,27.93
2018-03-26T08:11:35.021Z,22.97
2018-03-26T08:14:02.472Z,23.23
2018-03-26T08:16:29.920Z,25.17
2018-03-26T08:18:57.397Z,22.07
2018-03-26T08:21:24.852Z,22.50
2018-03-26T08:23:52.299Z,23.57
2018-03-26T08:26:19.748Z,24.17
2018-03-26T08:28:47.208Z,26.33
2018-03-26T08:31:15.419Z,22.67
2018-03-26T08:33:42.886Z,22.17
2018-03-26T08:36:10.332Z,29.07
2018-03-26T08:38:37.788Z,29.03
2018-03-26T08:41:05.259Z,27.80
2018-03-26T08:43:32.700Z,29.07
2018-03-26T08:46:00.144Z,29.13
2018-03-26T08:48:27.636Z,29.23
2018-03-26T08:50:55.080Z,31.87
2018-03-26T08:53:23.096Z,29.27
2018-03-26T08:55:49.972Z,30.40
2018-03-26T08:58:17.427Z,31.23
2018-03-26T09:00:44.888Z,29.53
2018-03-26T09:03:12.348Z,30.70
2018-03-26T09:05:39.796Z,31.53
2018-03-26T09:08:07.256Z,31.53
2018-03-26T09:10:34.712Z,31.67
2018-03-26T09:13:02.196Z,32.03
2018-03-26T09:15:29.652Z,32.70
2018-03-26T09:17:57.137Z,32.17
2018-03-26T09:20:25.380Z,32.23
2018-03-26T09:22:52.837Z,37.80
2018-03-26T09:25:20.300Z,32.70
2018-03-26T09:27:47.751Z,33.80
2018-03-26T09:30:15.213Z,33.30
2018-03-26T09:32:42.668Z,34.10
2018-03-26T09:35:10.128Z,34.17
2018-03-26T09:37:37.564Z,34.30
2018-03-26T09:40:05.040Z,31.00
2018-03-26T09:42:32.500Z,44.30
2018-03-26T09:44:59.956Z,34.63
2018-03-26T09:47:27.431Z,34.17
2018-03-26T09:49:54.896Z,31.13
2018-03-26T09:52:23.128Z,32.57
2018-03-26T09:54:50.615Z,33.53
2018-03-26T09:57:18.076Z,32.20
2018-03-26T09:59:45.532Z,32.63
2018-03-26T10:02:12.991Z,32.73
2018-03-26T10:04:40.452Z,34.27
2018-03-26T10:07:08.672Z,34.13
2018-03-26T10:09:36.130Z,33.13
2018-03-26T10:12:03.585Z,32.13
2018-03-26T10:14:31.042Z,33.03
2018-03-26T10:16:58.505Z,34.80
2018-03-26T10:19:25.979Z,31.80
2018-03-26T10:21:53.428Z,31.20
2018-03-26T10:24:21.712Z,33.17
2018-03-26T10:26:49.160Z,32.73
2018-03-26T10:29:16.616Z,32.27
2018-03-26T10:31:44.061Z,32.27
2018-03-26T10:34:11.521Z,31.30
2018-03-26T10:36:39.032Z,29.87
2018-03-26T10:39:07.264Z,33.00
2018-03-26T10:41:34.752Z,31.07
2018-03-26T10:44:02.219Z,32.63
2018-03-26T10:46:29.680Z,32.67
2018-03-26T10:48:57.118Z,33.93
2018-03-26T10:51:24.571Z,35.00
2018-03-26T10:53:52.048Z,32.67
2018-03-26T10:56:19.491Z,34.33
2018-03-26T10:58:46.943Z,32.20
2018-03-26T11:01:14.403Z,32.80
2018-03-26T11:03:41.884Z,33.70
2018-03-26T11:06:09.332Z,34.07
2018-03-26T11:08:36.776Z,34.03
2018-03-26T11:11:04.248Z,34.20
2018-03-26T11:13:31.692Z,33.00
2018-03-26T11:15:59.144Z,33.03
2018-03-26T11:18:26.604Z,34.33
2018-03-26T11:20:54.084Z,33.83
2018-03-26T11:23:21.520Z,34.70
2018-03-26T11:25:48.983Z,32.97
2018-03-26T11:28:16.459Z,36.47
2018-03-26T11:30:44.700Z,35.97
2018-03-26T11:33:12.148Z,35.83
2018-03-26T11:35:39.611Z,35.17
2018-03-26T11:38:07.067Z,36.17
2018-03-26T11:40:34.528Z,34.67
2018-03-26T11:43:01.988Z,34.80
2018-03-26T11:45:29.467Z,34.90
2018-03-26T11:47:56.926Z,34.43
2018-03-26T11:50:24.392Z,36.37
2018-03-26T11:52:51.823Z,35.47
2018-03-26T11:55:19.304Z,33.67
2018-03-26T11:57:46.739Z,31.83
2018-03-26T12:00:14.215Z,33.97
2018-03-26T12:02:41.655Z,35.40
2018-03-26T12:05:09.130Z,36.77
2018-03-26T12:07:36.580Z,34.57
2018-03-26T12:10:04.039Z,34.73
2018-03-26T12:12:31.482Z,35.90
2018-03-26T12:14:58.943Z,35.07
2018-03-26T12:17:26.440Z,32.80
2018-03-26T12:20:05.816Z,32.73
2018-03-26T12:22:33.277Z,33.73
2018-03-26T12:25:15.616Z,35.87
2018-03-26T12:27:55.632Z,34.73
2018-03-26T12:30:26.922Z,37.23
2018-03-26T12:32:54.374Z,35.53
2018-03-26T12:35:34.582Z,33.50
2018-03-26T12:38:02.034Z,30.70
2018-03-26T12:40:41.443Z,31.83
2018-03-26T12:43:08.888Z,31.43
2018-03-26T12:45:49.099Z,29.80
2018-03-26T12:48:16.559Z,30.10
2018-03-26T12:50:55.912Z,31.10
2018-03-26T12:53:23.359Z,30.57
2018-03-26T12:55:50.816Z,30.87
2018-03-26T12:58:30.084Z,30.53
2018-03-26T13:01:10.172Z,31.07
2018-03-26T13:03:37.606Z,32.60
2018-03-26T13:06:05.056Z,30.00
2018-03-26T13:08:33.266Z,31.30
2018-03-26T13:11:00.723Z,31.10
2018-03-26T13:13:28.207Z,29.53
2018-03-26T13:15:55.660Z,30.30
2018-03-26T13:18:23.112Z,30.23
2018-03-26T13:20:50.573Z,30.30
2018-03-26T13:23:18.040Z,29.23
2018-03-26T13:25:45.503Z,30.43
2018-03-26T13:28:12.951Z,30.50
2018-03-26T13:30:40.405Z,29.10
2018-03-26T13:33:07.851Z,28.67
2018-03-26T13:35:35.337Z,30.17
2018-03-26T13:38:02.791Z,31.30
2018-03-26T13:40:30.261Z,29.47
2018-03-26T13:42:58.502Z,31.37
2018-03-26T13:45:25.983Z,31.03
2018-03-26T13:47:54.217Z,30.30
2018-03-26T13:50:21.680Z,29.67
2018-03-26T13:52:49.163Z,30.33
2018-03-26T13:55:16.647Z,28.73
2018-03-26T13:57:44.099Z,29.23
2018-03-26T14:00:12.340Z,28.60
2018-03-26T14:02:39.796Z,26.87
2018-03-26T14:05:07.302Z,28.93
2018-03-26T14:07:35.521Z,30.20
2018-03-26T14:10:14.932Z,28.93
2018-03-26T14:12:54.269Z,29.97
2018-03-26T14:15:33.638Z,30.70
2018-03-26T14:18:01.097Z,30.83
2018-03-26T14:20:28.571Z,28.90
2018-03-26T14:22:56.055Z,29.03
2018-03-26T14:25:24.276Z,29.03
2018-03-26T14:27:51.733Z,29.70
2018-03-26T14:30:19.187Z,23.77
2018-03-26T14:32:46.648Z,31.00
2018-03-26T14:38:23.040Z,31.77
2018-03-26T14:40:50.502Z,34.03
2018-03-26T14:43:17.950Z,33.13
2018-03-26T14:45:45.383Z,33.43
2018-03-26T14:48:12.833Z,32.90
2018-03-26T14:50:40.273Z,34.93
2018-03-26T14:53:08.512Z,34.17
2018-03-26T14:55:35.956Z,34.13
2018-03-26T14:58:03.412Z,35.00
2018-03-26T15:00:30.869Z,37.23
2018-03-26T15:02:58.345Z,35.63
2018-03-26T15:05:25.856Z,32.83
2018-03-26T15:07:53.304Z,34.23
2018-03-26T15:10:20.819Z,32.53
2018-03-26T15:12:48.308Z,34.40
2018-03-26T15:15:15.764Z,33.50
2018-03-26T15:17:43.988Z,34.70
2018-03-26T15:20:11.445Z,34.37
2018-03-26T15:22:38.908Z,35.63
2018-03-26T15:25:06.364Z,33.33
2018-03-26T15:27:33.857Z,33.83
2018-03-26T15:30:01.313Z,33.33
2018-03-26T15:32:28.767Z,34.87
2018-03-26T15:34:56.224Z,84.13
2018-03-26T15:37:23.680Z,34.63
2018-03-26T15:39:51.156Z,34.47
2018-03-26T15:42:18.599Z,34.53
2018-03-26T15:44:46.074Z,35.10
2018-03-26T15:47:13.536Z,32.67
2018-03-26T15:49:41.776Z,32.97
2018-03-26T15:52:09.259Z,32.13
2018-03-26T15:54:36.691Z,31.50
2018-03-26T15:57:04.143Z,32.83
2018-03-26T15:59:31.621Z,31.33
2018-03-26T16:01:58.577Z,31.77
2018-03-26T16:04:26.822Z,32.10
2018-03-26T16:06:54.294Z,32.63
2018-03-26T16:09:21.748Z,30.47
2018-03-26T16:11:49.204Z,32.33
2018-03-26T16:14:16.683Z,31.10
2018-03-26T16:16:44.905Z,31.00
2018-03-26T16:19:12.366Z,32.03
2018-03-26T16:21:39.845Z,32.13
2018-03-26T16:24:07.303Z,29.77
2018-03-26T16:26:34.772Z,32.27
2018-03-26T16:29:02.235Z,31.67
2018-03-26T16:31:29.704Z,31.10
2018-03-26T16:33:57.941Z,30.73
2018-03-26T16:36:25.396Z,31.67
2018-03-26T16:38:52.840Z,32.37
2018-03-26T16:41:32.177Z,32.43
2018-03-26T16:43:59.634Z,35.30
2018-03-26T16:46:27.100Z,36.50
2018-03-26T16:48:54.545Z,34.30
2018-03-26T16:51:22.102Z,34.13
2018-03-26T16:53:49.617Z,32.70
2018-03-26T16:56:17.840Z,34.63
2018-03-26T16:58:45.308Z,35.30
2018-03-26T17:01:12.756Z,31.90
2018-03-26T17:03:40.246Z,29.03
2018-03-26T17:06:07.668Z,29.80
2018-03-26T17:08:35.141Z,28.20
2018-03-26T17:11:02.664Z,29.30
2018-03-26T17:13:30.078Z,24.17
2018-03-26T17:15:57.519Z,24.90
2018-03-26T17:18:25.003Z,19.30
2018-03-26T17:20:53.232Z,18.33
2018-03-26T17:23:20.689Z,20.70
2018-03-26T17:25:48.148Z,22.03
2018-03-26T17:28:15.640Z,20.37
2018-03-26T17:30:43.083Z,21.50
2018-03-26T17:33:10.543Z,19.70
2018-03-26T17:35:37.984Z,20.00
2018-03-26T17:38:05.447Z,19.60
2018-03-26T17:40:32.896Z,19.70
2018-03-26T17:43:00.359Z,19.50
2018-03-26T17:45:27.856Z,20.10
2018-03-26T17:47:56.079Z,20.40
2018-03-26T17:50:23.536Z,20.63
2018-03-26T17:52:51.024Z,20.43
2018-03-26T17:55:18.465Z,19.40
2018-03-26T17:57:45.975Z,19.83
2018-03-26T18:00:13.364Z,19.80
2018-03-26T18:02:40.836Z,19.03
2018-03-26T18:05:08.304Z,19.67
2018-03-26T18:07:35.755Z,18.50
2018-03-26T18:10:03.249Z,19.90
2018-03-26T18:12:30.690Z,21.83
2018-03-26T18:14:58.148Z,33.60
2018-03-26T18:17:25.608Z,31.00
2018-03-26T18:19:53.813Z,23.23
2018-03-26T18:22:21.266Z,21.00
2018-03-26T18:24:48.712Z,17.83
2018-03-26T18:27:16.943Z,17.40
2018-03-26T18:29:44.416Z,18.27
2018-03-26T18:32:11.844Z,17.13
2018-03-26T18:34:39.312Z,17.93
2018-03-26T18:37:06.760Z,18.87
2018-03-26T18:39:34.228Z,16.23
2018-03-26T18:42:01.677Z,16.23
2018-03-26T18:44:29.186Z,15.43
2018-03-26T18:46:56.588Z,15.37
2018-03-26T18:49:24.061Z,14.47
2018-03-26T18:51:51.503Z,15.50
2018-03-26T18:54:18.960Z,15.50
2018-03-26T18:56:46.423Z,15.33
2018-03-26T18:59:13.896Z,17.07
2018-03-26T19:01:41.344Z,15.63
2018-03-26T19:04:08.812Z,16.90
2018-03-26T19:06:36.260Z,17.23
2018-03-26T19:09:03.728Z,15.90
2018-03-26T19:11:31.184Z,16.00
2018-03-26T19:13:58.640Z,15.07
2018-03-26T19:16:26.096Z,15.10
2018-03-26T19:18:53.565Z,15.57
2018-03-26T19:21:21.012Z,14.87
2018-03-26T19:23:48.475Z,14.63
2018-03-26T19:26:15.920Z,15.73
2018-03-26T19:28:43.418Z,16.23
2018-03-26T19:31:10.844Z,14.93
2018-03-26T19:33:38.316Z,14.63
2018-03-26T19:36:06.564Z,14.63
2018-03-26T19:38:34.020Z,14.87
2018-03-26T19:41:01.471Z,15.50
2018-03-26T19:43:28.928Z,16.47
2018-03-26T19:45:56.382Z,17.10
2018-03-26T19:48:23.840Z,17.90
2018-03-26T19:50:51.303Z,17.37
2018-03-26T19:53:18.775Z,16.83
2018-03-26T19:55:46.227Z,18.70
2018-03-26T19:58:13.743Z,17.27
2018-03-26T20:00:41.136Z,20.93
2018-03-26T20:03:08.592Z,19.63
2018-03-26T20:05:36.035Z,18.67
2018-03-26T20:08:03.496Z,16.27
2018-03-26T20:10:30.957Z,18.50
2018-03-26T20:12:58.410Z,19.30
2018-03-26T20:15:25.869Z,18.37
2018-03-26T20:17:53.401Z,17.83
2018-03-26T20:20:20.791Z,20.53
2018-03-26T20:22:48.282Z,25.13
2018-03-26T20:25:15.728Z,22.13
2018-03-26T20:27:43.175Z,21.27
2018-03-26T20:30:10.643Z,22.47
2018-03-26T20:32:38.100Z,26.87
2018-03-26T20:35:05.569Z,25.97
2018-03-26T20:37:33.021Z,28.67
2018-03-26T20:40:00.488Z,28.47
2018-03-26T20:42:28.732Z,27.60
2018-03-26T20:44:56.171Z,24.43
2018-03-26T20:47:23.627Z,25.87
2018-03-26T20:49:51.084Z,22.93
2018-03-26T20:52:18.539Z,20.63
2018-03-26T20:54:46.000Z,22.77
2018-03-26T20:57:13.459Z,22.33
2018-03-26T20:59:40.915Z,22.10
2018-03-26T21:02:08.370Z,24.80
2018-03-26T21:04:35.833Z,25.77
2018-03-26T21:07:03.290Z,23.67
2018-03-26T21:09:30.757Z,23.57
2018-03-26T21:11:58.200Z,26.87
2018-03-26T21:14:25.657Z,24.10
2018-03-26T21:16:53.115Z,24.97
2018-03-26T21:19:20.571Z,28.13
2018-03-26T21:21:48.028Z,28.53
2018-03-26T21:24:15.488Z,26.53
2018-03-26T21:26:42.949Z,29.33
2018-03-26T21:29:10.404Z,30.03
2018-03-26T21:31:37.862Z,30.70
2018-03-26T21:34:05.316Z,28.93
2018-03-26T21:36:32.783Z,25.13
2018-03-26T21:41:34.269Z,22.87
2018-03-26T21:44:01.717Z,27.23
2018-03-26T21:46:29.167Z,22.60
2018-03-26T21:48:56.620Z,22.10
2018-03-26T21:51:24.104Z,23.60
2018-03-26T21:53:51.563Z,24.23
2018-03-26T21:56:19.040Z,23.27
2018-03-26T21:58:46.492Z,22.70
2018-03-26T22:01:14.736Z,21.57
2018-03-26T22:03:42.179Z,22.30
2018-03-26T22:06:09.632Z,21.30
2018-03-26T22:08:37.087Z,26.23
2018-03-26T22:11:04.516Z,26.33
2018-03-26T22:13:31.967Z,27.27
2018-03-26T22:15:59.413Z,25.93
2018-03-26T22:18:27.643Z,26.53
2018-03-26T22:20:55.099Z,24.43
2018-03-26T22:23:22.552Z,22.67
2018-03-26T22:25:50.008Z,21.47
2018-03-26T22:28:17.473Z,21.83
2018-03-26T22:30:44.921Z,21.37
2018-03-26T22:33:12.380Z,19.07
2018-03-26T22:35:39.835Z,19.80
2018-03-26T22:38:07.295Z,23.70
2018-03-26T22:40:34.750Z,21.80
2018-03-26T22:43:02.222Z,23.70
2018-03-26T22:45:29.664Z,26.33
2018-03-26T22:47:57.108Z,23.70
2018-03-26T22:50:24.573Z,27.50
2018-03-26T22:52:52.007Z,24.87
2018-03-26T22:55:19.459Z,25.23
2018-03-26T22:57:46.916Z,23.63
2018-03-26T23:00:14.409Z,22.60
2018-03-26T23:02:41.864Z,20.27
2018-03-26T23:05:09.320Z,23.67
2018-03-26T23:07:36.777Z,24.87
2018-03-26T23:10:04.235Z,28.07
2018-03-26T23:12:31.672Z,29.73
2018-03-26T23:14:59.147Z,31.63
2018-03-26T23:17:26.584Z,29.47
2018-03-26T23:19:54.065Z,29.13
2018-03-26T23:22:33.458Z,30.93
2018-03-26T23:25:00.912Z,31.10
2018-03-26T23:27:29.136Z,31.93
2018-03-26T23:29:56.595Z,29.77
2018-03-26T23:32:24.049Z,31.33
2018-03-26T23:34:51.504Z,29.07
2018-03-26T23:37:18.947Z,26.73
2018-03-26T23:39:46.420Z,24.53
2018-03-26T23:42:13.883Z,27.83
2018-03-26T23:44:41.335Z,22.03
2018-03-26T23:47:08.792Z,23.07
2018-03-26T23:49:36.309Z,24.37
2018-03-26T23:52:03.706Z,26.93
2018-03-26T23:54:31.214Z,24.93
2018-03-26T23:56:58.617Z,22.97
2018-03-26T23:59:26.079Z,21.70
